Time;durP1;ratioP1;P1;durP2;ratioP2;P2;SDS_P1;SDS_P2;PMS_P1;PMS_P2;Temp;Humidity;BMP_temperature;BMP_pressure;BME280_temperature;BME280_humidity;BME280_pressure;Samples;Min_cycle;Max_cycle;Signal;HPM_P1;HPM_P2
2023/08/14 02:00:34;;;;;;;2.80;2.60;;;;;;;;;;4936509;27;20071;-79
2023/08/14 02:03:00;;;;;;;2.78;2.42;;;;;;;;;;4282715;33;20451;-79
2023/08/14 02:05:26;;;;;;;3.42;2.33;;;;;;;;;;4284157;33;20038;-78
2023/08/14 02:07:53;;;;;;;3.00;2.72;;;;;;;;;;4283357;33;20075;-79
2023/08/14 02:10:20;;;;;;;2.60;2.42;;;;;;;;;;4284251;33;20037;-79
2023/08/14 02:12:46;;;;;;;4.00;2.78;;;;;;;;;;4283938;33;20091;-79
2023/08/14 02:15:12;;;;;;;2.67;2.47;;;;;;;;;;4283375;33;20054;-81
2023/08/14 02:17:40;;;;;;;2.62;2.42;;;;;;;;;;4283470;33;20722;-79
2023/08/14 02:20:07;;;;;;;3.70;2.22;;;;;;;;;;4284223;33;20436;-79
2023/08/14 02:22:33;;;;;;;2.90;2.70;;;;;;;;;;4282792;33;20075;-79
2023/08/14 02:24:59;;;;;;;2.50;2.30;;;;;;;;;;4282654;33;20042;-78
2023/08/14 02:27:25;;;;;;;2.75;2.40;;;;;;;;;;4282394;33;20041;-78
2023/08/14 02:29:52;;;;;;;3.08;2.50;;;;;;;;;;4283880;33;20096;-80
2023/08/14 02:32:18;;;;;;;6.25;3.30;;;;;;;;;;4284430;33;20049;-78
2023/08/14 02:34:48;;;;;;;3.83;2.60;;;;;;;;;;4266017;33;20068;-79
2023/08/14 02:37:15;;;;;;;3.17;2.95;;;;;;;;;;4264460;33;20509;-78
2023/08/14 02:39:42;;;;;;;4.25;2.70;;;;;;;;;;4266697;33;20081;-79
2023/08/14 02:42:08;;;;;;;3.17;2.87;;;;;;;;;;4266840;33;20050;-79
2023/08/14 02:44:34;;;;;;;5.37;2.67;;;;;;;;;;4267413;33;20046;-79
2023/08/14 02:47:01;;;;;;;3.55;2.67;;;;;;;;;;4266729;33;20357;-78
2023/08/14 02:49:27;;;;;;;7.28;2.90;;;;;;;;;;4264826;33;20029;-81
2023/08/14 02:51:53;;;;;;;3.28;2.97;;;;;;;;;;4266550;33;20050;-78
2023/08/14 02:54:19;;;;;;;3.87;2.70;;;;;;;;;;4267146;33;20129;-78
2023/08/14 02:56:46;;;;;;;4.60;2.92;;;;;;;;;;4280536;33;20481;-78
2023/08/14 02:59:12;;;;;;;2.60;2.40;;;;;;;;;;4279587;33;20037;-78
2023/08/14 03:01:38;;;;;;;10.30;2.95;;;;;;;;;;4278584;33;20057;-82
2023/08/14 03:04:04;;;;;;;3.40;3.15;;;;;;;;;;4281046;33;20129;-78
2023/08/14 03:06:31;;;;;;;2.95;2.75;;;;;;;;;;4281045;33;20057;-78
2023/08/14 03:08:58;;;;;;;5.05;2.55;;;;;;;;;;4280673;33;20522;-78
2023/08/14 03:11:24;;;;;;;4.35;2.90;;;;;;;;;;4281212;33;20112;-80
2023/08/14 03:13:50;;;;;;;3.78;2.78;;;;;;;;;;4279619;33;20086;-82
2023/08/14 03:16:17;;;;;;;3.17;2.87;;;;;;;;;;4279412;33;20045;-78
2023/08/14 03:18:43;;;;;;;3.78;3.47;;;;;;;;;;4281508;33;20047;-78
2023/08/14 03:21:09;;;;;;;3.60;3.30;;;;;;;;;;4280946;33;20071;-78
2023/08/14 03:23:35;;;;;;;3.53;3.20;;;;;;;;;;4279907;33;20045;-78
2023/08/14 03:26:02;;;;;;;4.60;2.90;;;;;;;;;;4278902;33;20089;-79
2023/08/14 03:28:35;;;;;;;2.83;2.60;;;;;;;;;;4258927;33;20257;-78
2023/08/14 03:31:01;;;;;;;3.10;2.80;;;;;;;;;;4269007;33;20077;-78
2023/08/14 03:33:28;;;;;;;3.72;3.37;;;;;;;;;;4267246;33;20038;-78
2023/08/14 03:35:55;;;;;;;3.28;2.92;;;;;;;;;;4270186;33;20054;-78
2023/08/14 03:38:21;;;;;;;11.85;3.65;;;;;;;;;;4275569;33;20171;-79
2023/08/14 03:40:47;;;;;;;3.90;2.90;;;;;;;;;;4276282;33;20049;-79
2023/08/14 03:43:13;;;;;;;5.90;3.67;;;;;;;;;;4276152;33;20059;-78
2023/08/14 03:45:40;;;;;;;5.75;3.20;;;;;;;;;;4273796;33;20041;-79
2023/08/14 03:48:06;;;;;;;4.60;3.67;;;;;;;;;;4273276;33;20141;-80
2023/08/14 03:50:32;;;;;;;3.58;3.37;;;;;;;;;;4253931;33;20079;-79
2023/08/14 03:52:59;;;;;;;3.72;3.53;;;;;;;;;;4254377;33;20042;-77
2023/08/14 03:55:26;;;;;;;6.40;3.62;;;;;;;;;;4264022;33;20407;-78
2023/08/14 03:57:52;;;;;;;3.40;3.12;;;;;;;;;;4265766;33;20061;-79
2023/08/14 04:00:18;;;;;;;7.97;3.30;;;;;;;;;;4251459;33;20057;-79
2023/08/14 04:02:45;;;;;;;4.75;4.20;;;;;;;;;;4276716;33;20215;-79
2023/08/14 04:05:11;;;;;;;6.03;3.62;;;;;;;;;;4280989;33;20363;-79
2023/08/14 04:07:37;;;;;;;3.78;3.42;;;;;;;;;;4280914;33;20036;-79
2023/08/14 04:10:03;;;;;;;6.25;3.55;;;;;;;;;;4281262;33;20087;-80
2023/08/14 04:12:35;;;;;;;3.75;3.37;;;;;;;;;;4280372;33;20064;-81
2023/08/14 04:15:11;;;;;;;8.90;3.80;;;;;;;;;;4281365;33;20126;-79
2023/08/14 04:17:37;;;;;;;4.95;3.58;;;;;;;;;;4282874;33;20075;-79
2023/08/14 04:20:04;;;;;;;8.63;3.22;;;;;;;;;;4278999;33;20058;-79
2023/08/14 04:22:30;;;;;;;4.18;3.72;;;;;;;;;;4279044;33;20072;-81
2023/08/14 04:24:56;;;;;;;8.48;4.10;;;;;;;;;;4278116;33;20068;-78
2023/08/14 04:27:22;;;;;;;4.00;3.60;;;;;;;;;;4280458;33;20034;-78
2023/08/14 04:29:49;;;;;;;4.30;3.83;;;;;;;;;;4293214;33;20052;-79
2023/08/14 04:32:15;;;;;;;4.32;3.30;;;;;;;;;;4278245;33;20049;-78
2023/08/14 04:34:42;;;;;;;7.28;3.80;;;;;;;;;;4292005;33;20104;-82
2023/08/14 04:37:08;;;;;;;5.80;4.07;;;;;;;;;;4291557;33;20028;-78
2023/08/14 04:39:35;;;;;;;6.35;4.07;;;;;;;;;;4278976;33;20063;-78
2023/08/14 04:42:01;;;;;;;6.97;3.58;;;;;;;;;;4278864;33;20562;-78
2023/08/14 04:44:28;;;;;;;7.90;3.92;;;;;;;;;;4279523;33;20037;-79
2023/08/14 04:46:54;;;;;;;6.57;4.10;;;;;;;;;;4279236;33;20126;-81
2023/08/14 04:49:20;;;;;;;10.77;4.18;;;;;;;;;;4279194;33;20147;-79
2023/08/14 04:51:46;;;;;;;7.53;4.00;;;;;;;;;;4282160;33;20161;-80
2023/08/14 04:54:13;;;;;;;9.70;3.83;;;;;;;;;;4282724;33;20123;-77
2023/08/14 04:56:39;;;;;;;8.90;4.15;;;;;;;;;;4278835;33;20065;-78
2023/08/14 04:59:06;;;;;;;5.53;4.15;;;;;;;;;;4280105;33;20044;-78
2023/08/14 05:01:33;;;;;;;6.28;4.32;;;;;;;;;;4281564;33;20075;-79
2023/08/14 05:03:59;;;;;;;7.57;5.03;;;;;;;;;;4265724;33;20042;-77
2023/08/14 05:06:25;;;;;;;8.40;4.53;;;;;;;;;;4282317;33;20061;-79
2023/08/14 05:08:53;;;;;;;16.87;5.22;;;;;;;;;;4280328;33;20062;-79
2023/08/14 05:11:19;;;;;;;6.95;4.85;;;;;;;;;;4282022;33;20072;-79
2023/08/14 05:13:46;;;;;;;7.97;4.60;;;;;;;;;;4281172;33;20444;-79
2023/08/14 05:16:14;;;;;;;5.10;4.18;;;;;;;;;;4281265;33;20029;-79
2023/08/14 05:18:40;;;;;;;7.57;5.28;;;;;;;;;;4279344;33;20034;-78
2023/08/14 05:21:06;;;;;;;6.82;5.30;;;;;;;;;;4278910;33;20056;-78
2023/08/14 05:23:33;;;;;;;6.28;4.85;;;;;;;;;;4282272;33;20071;-79
2023/08/14 05:25:58;;;;;;;4.90;4.43;;;;;;;;;;4280027;33;20460;-79
2023/08/14 05:28:25;;;;;;;16.25;4.50;;;;;;;;;;4282308;33;20398;-79
2023/08/14 05:30:51;;;;;;;6.95;4.32;;;;;;;;;;4258295;33;20084;-79
2023/08/14 05:33:17;;;;;;;5.03;4.28;;;;;;;;;;4252336;33;20063;-79
2023/08/14 05:35:43;;;;;;;9.13;4.50;;;;;;;;;;4275374;33;20048;-78
2023/08/14 05:38:09;;;;;;;9.65;4.82;;;;;;;;;;4281347;33;20064;-79
2023/08/14 05:40:35;;;;;;;8.32;4.70;;;;;;;;;;4282012;33;20160;-79
2023/08/14 05:43:03;;;;;;;5.20;4.47;;;;;;;;;;4282380;33;20178;-82
2023/08/14 05:45:33;;;;;;;10.25;5.10;;;;;;;;;;4281055;33;20279;-81
2023/08/14 05:48:00;;;;;;;10.57;5.22;;;;;;;;;;4282498;33;20041;-80
2023/08/14 05:50:27;;;;;;;8.73;5.18;;;;;;;;;;4283070;33;20041;-79
2023/08/14 05:52:54;;;;;;;14.45;5.68;;;;;;;;;;4280525;33;20426;-81
2023/08/14 05:55:20;;;;;;;8.65;5.65;;;;;;;;;;4280372;33;20059;-79
2023/08/14 05:57:46;;;;;;;11.95;6.60;;;;;;;;;;4294883;33;20063;-79
2023/08/14 06:00:14;;;;;;;7.18;4.90;;;;;;;;;;4297590;33;20041;-77
2023/08/14 06:02:40;;;;;;;10.40;4.30;;;;;;;;;;4264348;33;20050;-79
2023/08/14 06:05:08;;;;;;;11.23;5.80;;;;;;;;;;4265412;33;20060;-79
2023/08/14 06:07:34;;;;;;;10.65;6.10;;;;;;;;;;4264898;33;20057;-79
2023/08/14 06:10:02;;;;;;;8.10;5.55;;;;;;;;;;4264033;33;20060;-78
2023/08/14 06:12:28;;;;;;;6.75;4.93;;;;;;;;;;4266178;33;20049;-79
2023/08/14 06:14:54;;;;;;;8.10;4.50;;;;;;;;;;4266896;33;20120;-79
2023/08/14 06:17:20;;;;;;;5.20;4.60;;;;;;;;;;4262131;33;20475;-80
2023/08/14 06:19:47;;;;;;;6.82;5.00;;;;;;;;;;4264918;33;20054;-79
2023/08/14 06:22:13;;;;;;;8.85;5.05;;;;;;;;;;4266756;33;20053;-78
2023/08/14 06:24:39;;;;;;;9.75;5.53;;;;;;;;;;4267157;33;20077;-78
2023/08/14 06:27:05;;;;;;;12.35;5.07;;;;;;;;;;4266637;33;20055;-80
2023/08/14 06:29:31;;;;;;;10.02;4.93;;;;;;;;;;4266151;33;20074;-78
2023/08/14 06:31:57;;;;;;;9.88;4.40;;;;;;;;;;4264832;33;20045;-80
2023/08/14 06:34:30;;;;;;;8.18;5.37;;;;;;;;;;4291953;33;20083;-79
2023/08/14 06:36:56;;;;;;;14.45;5.05;;;;;;;;;;4296879;33;20092;-79
2023/08/14 06:39:22;;;;;;;16.37;4.70;;;;;;;;;;4298283;33;20089;-78
2023/08/14 06:41:49;;;;;;;10.35;4.50;;;;;;;;;;4297305;33;20071;-79
2023/08/14 06:44:16;;;;;;;8.30;4.45;;;;;;;;;;4297166;33;20537;-78
2023/08/14 06:46:42;;;;;;;7.70;4.55;;;;;;;;;;4296968;33;20413;-79
2023/08/14 06:49:10;;;;;;;6.53;4.82;;;;;;;;;;4297450;33;20057;-79
2023/08/14 06:51:37;;;;;;;9.23;4.90;;;;;;;;;;4298174;33;20777;-80
2023/08/14 06:54:03;;;;;;;6.47;5.12;;;;;;;;;;4297182;33;20349;-83
2023/08/14 06:56:29;;;;;;;11.52;5.62;;;;;;;;;;4296150;33;20391;-80
2023/08/14 06:58:55;;;;;;;17.73;5.43;;;;;;;;;;4296984;33;20084;-80
2023/08/14 07:01:22;;;;;;;5.45;4.82;;;;;;;;;;4296081;33;20135;-78
2023/08/14 07:03:48;;;;;;;17.67;5.12;;;;;;;;;;4297798;33;20057;-77
2023/08/14 07:06:14;;;;;;;5.55;4.18;;;;;;;;;;4295476;33;20053;-79
2023/08/14 07:08:40;;;;;;;6.40;5.12;;;;;;;;;;4296818;33;20358;-80
2023/08/14 07:11:07;;;;;;;14.77;4.55;;;;;;;;;;4298614;33;20037;-78
2023/08/14 07:13:33;;;;;;;13.77;5.50;;;;;;;;;;4296658;33;20195;-78
2023/08/14 07:15:59;;;;;;;14.40;4.07;;;;;;;;;;4297663;33;20066;-78
2023/08/14 07:18:26;;;;;;;9.18;3.55;;;;;;;;;;4294797;33;20440;-81
2023/08/14 07:20:53;;;;;;;5.37;4.50;;;;;;;;;;4264874;33;20124;-78
2023/08/14 07:23:20;;;;;;;4.37;3.92;;;;;;;;;;4266210;33;20045;-78
2023/08/14 07:25:46;;;;;;;7.22;4.15;;;;;;;;;;4265087;33;20061;-79
2023/08/14 07:28:12;;;;;;;7.72;5.12;;;;;;;;;;4263754;33;20026;-79
2023/08/14 07:30:39;;;;;;;8.95;4.72;;;;;;;;;;4262479;33;20054;-82
2023/08/14 07:33:06;;;;;;;7.68;4.10;;;;;;;;;;4250635;33;20068;-81
2023/08/14 07:35:32;;;;;;;11.52;4.47;;;;;;;;;;4252167;33;20460;-78
2023/08/14 07:37:58;;;;;;;5.50;4.30;;;;;;;;;;4250592;33;20035;-76
2023/08/14 07:40:24;;;;;;;4.10;3.45;;;;;;;;;;4250857;33;20476;-77
2023/08/14 07:42:50;;;;;;;7.93;4.03;;;;;;;;;;4250883;33;20034;-78
2023/08/14 07:45:16;;;;;;;14.32;4.35;;;;;;;;;;4250081;33;20574;-78
2023/08/14 07:47:43;;;;;;;12.52;3.33;;;;;;;;;;4250557;33;20537;-78
2023/08/14 07:50:09;;;;;;;7.60;3.70;;;;;;;;;;4250049;33;20068;-78
2023/08/14 07:52:35;;;;;;;9.00;3.12;;;;;;;;;;4254647;33;20357;-79
2023/08/14 07:55:02;;;;;;;5.00;3.25;;;;;;;;;;4255024;33;20103;-80
2023/08/14 07:57:28;;;;;;;11.57;4.18;;;;;;;;;;4229519;33;20478;-78
2023/08/14 07:59:54;;;;;;;4.30;3.90;;;;;;;;;;4230003;33;20308;-76
2023/08/14 08:02:20;;;;;;;5.03;3.80;;;;;;;;;;4228456;33;20072;-78
2023/08/14 08:04:47;;;;;;;5.10;3.65;;;;;;;;;;4229178;33;20076;-79
2023/08/14 08:07:13;;;;;;;4.00;3.65;;;;;;;;;;4230153;33;20035;-81
2023/08/14 08:09:40;;;;;;;5.95;3.37;;;;;;;;;;4226960;33;20047;-78
2023/08/14 08:12:06;;;;;;;5.50;3.90;;;;;;;;;;4231949;33;20065;-79
2023/08/14 08:14:33;;;;;;;4.50;3.78;;;;;;;;;;4245106;33;20046;-79
2023/08/14 08:16:59;;;;;;;10.45;3.72;;;;;;;;;;4251718;33;20043;-80
2023/08/14 08:19:26;;;;;;;7.55;3.17;;;;;;;;;;4249607;33;20465;-82
2023/08/14 08:21:59;;;;;;;4.50;3.05;;;;;;;;;;4250411;33;20046;-77
2023/08/14 08:24:25;;;;;;;4.70;2.90;;;;;;;;;;4254585;33;20456;-78
2023/08/14 08:26:51;;;;;;;10.05;3.30;;;;;;;;;;4266525;33;20107;-79
2023/08/14 08:29:17;;;;;;;4.20;3.30;;;;;;;;;;4301685;33;20048;-78
2023/08/14 08:31:44;;;;;;;4.47;3.72;;;;;;;;;;4308609;33;20052;-77
2023/08/14 08:34:10;;;;;;;7.62;3.33;;;;;;;;;;4309932;33;20078;-77
2023/08/14 08:36:36;;;;;;;11.77;3.67;;;;;;;;;;4309696;33;20037;-78
2023/08/14 08:39:02;;;;;;;4.82;3.85;;;;;;;;;;4310403;33;20091;-78
2023/08/14 08:41:32;;;;;;;7.37;4.05;;;;;;;;;;4281288;33;20041;-78
2023/08/14 08:44:07;;;;;;;8.90;3.10;;;;;;;;;;4277502;33;20087;-79
2023/08/14 08:46:35;;;;;;;10.57;3.10;;;;;;;;;;4281323;33;20452;-78
2023/08/14 08:49:02;;;;;;;12.77;3.75;;;;;;;;;;4280828;33;20060;-78
2023/08/14 08:51:28;;;;;;;4.07;3.08;;;;;;;;;;4280594;33;20038;-77
2023/08/14 08:53:55;;;;;;;8.57;4.25;;;;;;;;;;4278732;33;20460;-78
2023/08/14 08:56:21;;;;;;;3.50;2.65;;;;;;;;;;4281309;33;20123;-79
2023/08/14 08:58:47;;;;;;;5.20;3.17;;;;;;;;;;4268836;33;20045;-78
2023/08/14 09:01:14;;;;;;;3.55;3.33;;;;;;;;;;4266737;33;20057;-78
2023/08/14 09:03:40;;;;;;;5.95;2.45;;;;;;;;;;4266908;33;20046;-79
2023/08/14 09:06:06;;;;;;;5.40;3.08;;;;;;;;;;4266803;33;20459;-77
2023/08/14 09:08:33;;;;;;;2.72;2.42;;;;;;;;;;4267241;33;20100;-79
2023/08/14 09:10:59;;;;;;;5.97;2.50;;;;;;;;;;4267411;33;20053;-77
2023/08/14 09:13:25;;;;;;;4.95;2.65;;;;;;;;;;4279019;33;20049;-78
2023/08/14 09:15:51;;;;;;;4.70;2.60;;;;;;;;;;4280189;33;20077;-79
2023/08/14 09:18:17;;;;;;;4.62;2.90;;;;;;;;;;4280214;33;20586;-79
2023/08/14 09:20:44;;;;;;;5.25;2.30;;;;;;;;;;4282480;33;20057;-78
2023/08/14 09:23:12;;;;;;;5.03;2.22;;;;;;;;;;4281895;33;20084;-78
2023/08/14 09:28:17;;;;;;;2.70;2.50;;;;;;;;;;4297425;33;20216;-78
2023/08/14 09:30:43;;;;;;;7.93;2.30;;;;;;;;;;4298772;33;20054;-79
2023/08/14 09:33:10;;;;;;;6.15;2.40;;;;;;;;;;4298025;33;20063;-78
2023/08/14 09:35:37;;;;;;;8.88;2.20;;;;;;;;;;4299033;33;20075;-78
2023/08/14 09:38:04;;;;;;;5.35;1.87;;;;;;;;;;4311338;33;20439;-82
2023/08/14 09:40:30;;;;;;;2.00;1.90;;;;;;;;;;4312174;33;20045;-79
2023/08/14 09:42:57;;;;;;;2.58;2.37;;;;;;;;;;4312912;33;20052;-79
2023/08/14 09:45:24;;;;;;;4.10;2.35;;;;;;;;;;4312912;33;20435;-79
2023/08/14 09:47:51;;;;;;;5.72;2.45;;;;;;;;;;4313152;33;20040;-79
2023/08/14 09:50:19;;;;;;;2.22;2.08;;;;;;;;;;4312765;33;20057;-79
2023/08/14 09:52:45;;;;;;;3.58;2.10;;;;;;;;;;4299726;33;20067;-78
2023/08/14 09:55:13;;;;;;;2.22;2.03;;;;;;;;;;4291465;33;20747;-77
2023/08/14 09:57:40;;;;;;;8.10;2.47;;;;;;;;;;4292529;33;20091;-78
2023/08/14 10:00:06;;;;;;;9.98;4.47;;;;;;;;;;4294806;33;20067;-79
2023/08/14 10:02:35;;;;;;;10.02;2.72;;;;;;;;;;4300009;33;20048;-79
2023/08/14 10:05:02;;;;;;;2.90;2.70;;;;;;;;;;4301330;33;20103;-79
2023/08/14 10:07:30;;;;;;;4.25;2.80;;;;;;;;;;4298745;33;20046;-79
2023/08/14 10:09:57;;;;;;;9.35;2.70;;;;;;;;;;4295308;33;20070;-79
2023/08/14 10:12:27;;;;;;;3.10;2.80;;;;;;;;;;4294915;33;20523;-79
2023/08/14 10:14:58;;;;;;;2.78;2.58;;;;;;;;;;4293162;33;20075;-79
2023/08/14 10:17:25;;;;;;;;;;;;;;;;;;4292363;33;20041;-79
2023/08/14 10:19:51;;;;;;;2.65;2.33;;;;;;;;;;4300264;33;19932;-79
2023/08/14 10:22:19;;;;;;;11.98;3.62;;;;;;;;;;4299363;33;20052;-77
2023/08/14 10:24:45;;;;;;;5.22;2.60;;;;;;;;;;4299260;33;20485;-78
2023/08/14 10:27:12;;;;;;;3.05;2.80;;;;;;;;;;4300768;33;20114;-78
2023/08/14 10:29:39;;;;;;;4.32;2.58;;;;;;;;;;4301966;33;20037;-78
2023/08/14 10:32:05;;;;;;;4.40;2.25;;;;;;;;;;4300380;33;20037;-78
2023/08/14 10:34:32;;;;;;;4.15;2.47;;;;;;;;;;4300920;33;20109;-77
2023/08/14 10:36:59;;;;;;;1.95;1.80;;;;;;;;;;4300004;33;20053;-81
2023/08/14 10:39:33;;;;;;;4.80;2.53;;;;;;;;;;4283756;33;20964;-76
2023/08/14 10:42:00;;;;;;;4.80;3.03;;;;;;;;;;4284984;33;20045;-74
2023/08/14 10:44:35;;;;;;;5.95;4.53;;;;;;;;;;4285881;33;20048;-77
2023/08/14 10:47:06;;;;;;;2.67;2.47;;;;;;;;;;4283895;33;20879;-79
2023/08/14 10:49:45;;;;;;;3.40;2.40;;;;;;;;;;4286134;33;20497;-78
2023/08/14 10:52:15;;;;;;;7.45;2.30;;;;;;;;;;4271966;33;20062;-78
2023/08/14 10:54:43;;;;;;;2.33;2.17;;;;;;;;;;4270605;33;20101;-78
2023/08/14 10:57:11;;;;;;;5.93;3.30;;;;;;;;;;4231177;33;20062;-78
2023/08/14 10:59:38;;;;;;;5.68;3.03;;;;;;;;;;4228905;33;20372;-79
2023/08/14 11:02:12;;;;;;;7.68;2.92;;;;;;;;;;4362003;28;20039;-77
2023/08/14 11:04:58;;;;;;;2.40;2.17;;;;;;;;;;4233077;33;20099;-79
2023/08/14 11:07:26;;;;;;;4.43;2.62;;;;;;;;;;4250618;33;20049;-80
2023/08/14 11:09:52;;;;;;;15.80;3.00;;;;;;;;;;4254142;33;20453;-79
2023/08/14 11:12:18;;;;;;;3.58;3.03;;;;;;;;;;4262818;33;20101;-83
2023/08/14 11:14:45;;;;;;;3.53;2.35;;;;;;;;;;4263156;33;20899;-79
2023/08/14 11:17:12;;;;;;;7.60;3.17;;;;;;;;;;4265900;33;20075;-79
2023/08/14 11:19:39;;;;;;;4.37;3.00;;;;;;;;;;4252107;33;20078;-80
2023/08/14 11:22:05;;;;;;;6.05;2.67;;;;;;;;;;4251475;33;20492;-78
2023/08/14 11:24:36;;;;;;;2.70;2.40;;;;;;;;;;4250218;33;20056;-79
2023/08/14 11:27:03;;;;;;;6.12;3.90;;;;;;;;;;4251693;33;20057;-79
2023/08/14 11:29:29;;;;;;;3.17;2.97;;;;;;;;;;4265118;33;20075;-79
2023/08/14 11:31:55;;;;;;;4.32;3.00;;;;;;;;;;4251262;33;20042;-79
2023/08/14 11:34:21;;;;;;;2.95;2.75;;;;;;;;;;4250652;33;20106;-78
2023/08/14 11:36:54;;;;;;;6.30;3.10;;;;;;;;;;4251907;33;20389;-78
2023/08/14 11:39:20;;;;;;;3.45;3.22;;;;;;;;;;4250857;33;20045;-78
2023/08/14 11:41:46;;;;;;;5.78;3.92;;;;;;;;;;4250802;33;20050;-78
2023/08/14 11:44:12;;;;;;;6.12;2.95;;;;;;;;;;4249234;33;20050;-78
2023/08/14 11:46:39;;;;;;;8.88;4.80;;;;;;;;;;4255512;33;20067;-77
2023/08/14 11:49:05;;;;;;;3.53;3.22;;;;;;;;;;4264917;33;20113;-79
2023/08/14 11:51:31;;;;;;;14.73;4.15;;;;;;;;;;4264145;33;20402;-79
2023/08/14 11:53:58;;;;;;;3.20;2.90;;;;;;;;;;4265576;33;20042;-79
2023/08/14 11:56:25;;;;;;;5.10;3.10;;;;;;;;;;4234889;33;20045;-81
2023/08/14 11:58:52;;;;;;;5.53;3.33;;;;;;;;;;4246675;33;20435;-78
2023/08/14 12:01:19;;;;;;;2.85;2.58;;;;;;;;;;4251267;33;20062;-77
2023/08/14 12:03:46;;;;;;;3.45;3.20;;;;;;;;;;4247766;33;20064;-78
2023/08/14 12:06:12;;;;;;;5.85;3.25;;;;;;;;;;4249304;33;20071;-78
2023/08/14 12:08:38;;;;;;;4.00;3.12;;;;;;;;;;4233867;33;20050;-78
2023/08/14 12:11:05;;;;;;;5.20;4.70;;;;;;;;;;4236865;33;20203;-78
2023/08/14 12:13:31;;;;;;;3.30;3.03;;;;;;;;;;4238486;33;20019;-78
2023/08/14 12:16:03;;;;;;;8.13;3.72;;;;;;;;;;4241617;33;20115;-78
2023/08/14 12:18:35;;;;;;;3.92;2.85;;;;;;;;;;4240626;33;20042;-81
2023/08/14 12:21:01;;;;;;;2.60;2.40;;;;;;;;;;4242123;33;20046;-79
2023/08/14 12:23:28;;;;;;;3.17;2.97;;;;;;;;;;4244980;33;20055;-80
2023/08/14 12:25:54;;;;;;;7.97;2.85;;;;;;;;;;4243272;33;20096;-79
2023/08/14 12:28:20;;;;;;;8.15;2.83;;;;;;;;;;4242581;33;20054;-79
2023/08/14 12:30:49;;;;;;;2.80;2.60;;;;;;;;;;4260527;33;20057;-81
2023/08/14 12:33:15;;;;;;;3.40;3.12;;;;;;;;;;4267569;33;20037;-79
2023/08/14 12:35:42;;;;;;;3.42;3.12;;;;;;;;;;4295609;33;20455;-79
2023/08/14 12:38:08;;;;;;;3.37;3.08;;;;;;;;;;4293826;33;20114;-80
2023/08/14 12:40:34;;;;;;;3.10;2.80;;;;;;;;;;4294986;33;20055;-79
2023/08/14 12:43:00;;;;;;;3.90;3.35;;;;;;;;;;4294777;33;20049;-82
2023/08/14 12:45:27;;;;;;;2.62;2.42;;;;;;;;;;4294761;33;20459;-80
2023/08/14 12:47:53;;;;;;;3.33;2.95;;;;;;;;;;4295311;33;20045;-79
2023/08/14 12:50:19;;;;;;;6.93;2.92;;;;;;;;;;4294542;33;20086;-80
2023/08/14 12:52:45;;;;;;;4.45;2.87;;;;;;;;;;4294931;33;20386;-80
2023/08/14 12:55:14;;;;;;;7.15;3.40;;;;;;;;;;4295521;33;20045;-81
2023/08/14 12:57:40;;;;;;;5.40;3.08;;;;;;;;;;4292717;33;20659;-80
2023/08/14 13:00:07;;;;;;;3.05;2.83;;;;;;;;;;4296494;33;20130;-80
2023/08/14 13:02:33;;;;;;;4.75;3.00;;;;;;;;;;4294759;33;20087;-81
2023/08/14 13:04:59;;;;;;;3.42;3.12;;;;;;;;;;4293258;33;20060;-80
2023/08/14 13:07:28;;;;;;;5.20;2.58;;;;;;;;;;4296190;33;20163;-80
2023/08/14 13:09:55;;;;;;;6.80;3.42;;;;;;;;;;4271165;33;20074;-79
2023/08/14 13:12:22;;;;;;;3.62;2.85;;;;;;;;;;4268264;33;20045;-79
2023/08/14 13:14:48;;;;;;;5.75;3.15;;;;;;;;;;4265160;33;20122;-78
2023/08/14 13:17:15;;;;;;;5.20;2.62;;;;;;;;;;4267959;33;20063;-79
2023/08/14 13:19:41;;;;;;;4.45;3.45;;;;;;;;;;4266118;33;20083;-82
2023/08/14 13:22:07;;;;;;;3.50;3.20;;;;;;;;;;4265417;33;20508;-79
2023/08/14 13:24:34;;;;;;;9.07;3.30;;;;;;;;;;4266087;33;20100;-78
2023/08/14 13:26:59;;;;;;;3.53;3.00;;;;;;;;;;4266330;33;20045;-79
2023/08/14 13:29:26;;;;;;;4.10;3.50;;;;;;;;;;4266256;33;20117;-79
2023/08/14 13:31:52;;;;;;;4.55;3.95;;;;;;;;;;4264898;33;20053;-83
2023/08/14 13:34:18;;;;;;;7.87;3.35;;;;;;;;;;4266767;33;20555;-79
2023/08/14 13:36:45;;;;;;;3.60;3.30;;;;;;;;;;4254374;33;20057;-81
2023/08/14 13:39:13;;;;;;;5.03;3.28;;;;;;;;;;4251029;33;20131;-79
2023/08/14 13:41:39;;;;;;;6.93;3.28;;;;;;;;;;4287161;33;20041;-81
2023/08/14 13:44:05;;;;;;;6.47;3.35;;;;;;;;;;4296590;33;20122;-80
2023/08/14 13:46:32;;;;;;;6.50;3.40;;;;;;;;;;4294822;33;20087;-79
2023/08/14 13:48:58;;;;;;;3.72;3.05;;;;;;;;;;4297307;33;20066;-80
2023/08/14 13:51:24;;;;;;;5.93;2.80;;;;;;;;;;4299724;33;20045;-79
2023/08/14 13:53:50;;;;;;;11.35;2.65;;;;;;;;;;4293037;33;20071;-81
2023/08/14 13:56:16;;;;;;;2.65;2.40;;;;;;;;;;4301645;33;20059;-82
2023/08/14 13:58:42;;;;;;;3.75;2.92;;;;;;;;;;4301760;33;20068;-79
2023/08/14 14:01:09;;;;;;;11.95;3.80;;;;;;;;;;4308585;33;20049;-79
2023/08/14 14:03:35;;;;;;;2.40;2.20;;;;;;;;;;4307744;33;20088;-79
2023/08/14 14:06:01;;;;;;;5.10;2.35;;;;;;;;;;4296150;33;20131;-79
2023/08/14 14:08:27;;;;;;;7.68;3.37;;;;;;;;;;4296458;33;20464;-81
2023/08/14 14:10:54;;;;;;;6.90;3.47;;;;;;;;;;4295243;33;20057;-80
2023/08/14 14:13:20;;;;;;;3.15;2.95;;;;;;;;;;4309570;33;20049;-78
2023/08/14 14:15:46;;;;;;;6.15;2.75;;;;;;;;;;4313584;33;20045;-79
2023/08/14 14:18:15;;;;;;;5.93;3.28;;;;;;;;;;4310057;33;20045;-79
2023/08/14 14:20:41;;;;;;;2.80;2.20;;;;;;;;;;4308975;33;20071;-82
2023/08/14 14:23:07;;;;;;;2.40;2.20;;;;;;;;;;4308596;33;20032;-80
2023/08/14 14:25:34;;;;;;;2.50;2.17;;;;;;;;;;4310762;33;20055;-80
2023/08/14 14:28:00;;;;;;;3.35;1.85;;;;;;;;;;4306516;33;20037;-80
2023/08/14 14:30:27;;;;;;;4.95;2.40;;;;;;;;;;4307603;33;20756;-80
2023/08/14 14:32:54;;;;;;;4.25;2.58;;;;;;;;;;4304717;33;20437;-79
2023/08/14 14:35:21;;;;;;;3.75;2.28;;;;;;;;;;4264834;33;20602;-80
2023/08/14 14:37:47;;;;;;;2.60;2.40;;;;;;;;;;4265226;33;20566;-81
2023/08/14 14:40:13;;;;;;;3.65;2.62;;;;;;;;;;4265207;33;20068;-78
2023/08/14 14:42:39;;;;;;;4.82;2.25;;;;;;;;;;4265921;33;20130;-80
2023/08/14 14:45:06;;;;;;;2.15;2.05;;;;;;;;;;4252899;33;20031;-80
2023/08/14 14:47:33;;;;;;;8.20;2.37;;;;;;;;;;4266518;33;20058;-79
2023/08/14 14:49:59;;;;;;;2.85;2.53;;;;;;;;;;4267367;33;20045;-80
2023/08/14 14:52:25;;;;;;;5.07;2.55;;;;;;;;;;4253511;33;20049;-80
2023/08/14 14:54:52;;;;;;;4.87;2.37;;;;;;;;;;4265201;33;20058;-81
2023/08/14 14:57:18;;;;;;;2.40;2.20;;;;;;;;;;4262494;33;20113;-80
2023/08/14 14:59:45;;;;;;;8.60;2.53;;;;;;;;;;4266702;33;20327;-80
2023/08/14 15:02:11;;;;;;;7.43;2.70;;;;;;;;;;4264121;33;20058;-80
2023/08/14 15:04:37;;;;;;;8.75;2.30;;;;;;;;;;4265381;33;20118;-80
2023/08/14 15:07:05;;;;;;;2.45;2.35;;;;;;;;;;4297848;33;20045;-82
2023/08/14 15:09:31;;;;;;;3.90;2.30;;;;;;;;;;4307629;33;20675;-80
2023/08/14 15:11:57;;;;;;;12.40;2.40;;;;;;;;;;4264296;33;20117;-80
2023/08/14 15:14:23;;;;;;;6.12;2.55;;;;;;;;;;4264579;33;20825;-80
2023/08/14 15:16:56;;;;;;;2.47;2.17;;;;;;;;;;4263353;33;20054;-80
2023/08/14 15:19:22;;;;;;;4.60;1.98;;;;;;;;;;4253348;33;20682;-80
2023/08/14 15:21:48;;;;;;;2.53;2.10;;;;;;;;;;4252775;33;20068;-80
2023/08/14 15:24:14;;;;;;;7.60;2.53;;;;;;;;;;4250052;33;20092;-81
2023/08/14 15:26:40;;;;;;;2.35;2.25;;;;;;;;;;4250695;33;20038;-79
2023/08/14 15:29:07;;;;;;;7.00;2.65;;;;;;;;;;4264080;33;20054;-82
2023/08/14 15:31:33;;;;;;;3.40;2.58;;;;;;;;;;4265125;33;20049;-79
2023/08/14 15:33:59;;;;;;;7.68;2.40;;;;;;;;;;4265718;33;20042;-79
2023/08/14 15:36:25;;;;;;;7.35;2.70;;;;;;;;;;4265020;33;20433;-80
2023/08/14 15:38:52;;;;;;;8.27;2.22;;;;;;;;;;4264845;33;20083;-80
2023/08/14 15:41:20;;;;;;;3.42;2.65;;;;;;;;;;4252302;33;20046;-80
2023/08/14 15:43:46;;;;;;;3.42;2.87;;;;;;;;;;4298856;33;20049;-78
2023/08/14 15:46:12;;;;;;;5.35;2.22;;;;;;;;;;4308984;33;20048;-80
2023/08/14 15:48:39;;;;;;;3.37;2.37;;;;;;;;;;4308016;33;20029;-80
2023/08/14 15:51:05;;;;;;;3.42;2.35;;;;;;;;;;4263826;33;20572;-80
2023/08/14 15:53:32;;;;;;;7.55;2.30;;;;;;;;;;4250865;33;20068;-82
2023/08/14 15:55:58;;;;;;;4.95;2.37;;;;;;;;;;4264617;33;20085;-80
2023/08/14 15:58:24;;;;;;;4.47;2.45;;;;;;;;;;4265825;33;20109;-80
2023/08/14 16:00:51;;;;;;;7.47;2.47;;;;;;;;;;4244601;33;20064;-79
2023/08/14 16:03:17;;;;;;;5.32;1.92;;;;;;;;;;4237548;33;20091;-80
2023/08/14 16:05:43;;;;;;;2.40;2.20;;;;;;;;;;4236288;33;20353;-80
2023/08/14 16:08:09;;;;;;;7.05;3.60;;;;;;;;;;4238724;33;20206;-80
2023/08/14 16:10:35;;;;;;;2.65;2.45;;;;;;;;;;4237825;33;20064;-79
2023/08/14 16:13:02;;;;;;;11.02;2.60;;;;;;;;;;4237497;33;20889;-81
2023/08/14 16:15:28;;;;;;;10.27;2.80;;;;;;;;;;4236741;33;20085;-81
2023/08/14 16:17:54;;;;;;;3.15;2.78;;;;;;;;;;4236413;33;20064;-81
2023/08/14 16:20:20;;;;;;;9.38;2.62;;;;;;;;;;4237134;33;20042;-81
2023/08/14 16:22:46;;;;;;;9.35;3.53;;;;;;;;;;4283564;33;20056;-81
2023/08/14 16:25:12;;;;;;;5.15;2.12;;;;;;;;;;4284204;33;20055;-80
2023/08/14 16:27:38;;;;;;;7.47;2.50;;;;;;;;;;4277985;33;20057;-81
2023/08/14 16:30:05;;;;;;;3.28;2.70;;;;;;;;;;4280344;33;20409;-81
2023/08/14 16:32:31;;;;;;;17.20;2.85;;;;;;;;;;4279899;33;20083;-81
2023/08/14 16:34:58;;;;;;;4.22;2.58;;;;;;;;;;4278976;33;20167;-82
2023/08/14 16:37:24;;;;;;;11.77;2.85;;;;;;;;;;4280029;33;20049;-82
2023/08/14 16:39:50;;;;;;;11.93;2.47;;;;;;;;;;4279176;33;20046;-86